Stoneburg, Texas
Current Conditions -  °F | °C
As of 2:35 PM on Friday 19 Dec 2014 (Local Time) from K0F2 Reporting Station
Overcast Overcast  
Wind Chill: 41°   Ceiling: 900
Heat Index: 45°   Visibility: 10mi
Dew Point: 42°   Wind: 7mph
Humidity: 89%   Direction: 350°N
Pressure: 30.17"   Gusts: NA
Location:  33.5529°N, 97.8448°W
Report Text: K0F2 192035Z AUTO 35006KT 10SM OVC009 07/06 A3017 RMK AO2 T00720055
Loading
Personal Weather Stations






























Interactive Weather Map New forecast layout! Learn more

10-Day Weather Forecast

Advertisements
Track Severe Weather on mobile